Terminal Aerodrome Forecast
Issued by NWS

Current Version | Previous Version | Graphics & Text | Print | Product List | Glossary On
Versions: 1 2 3 4 5 6 7 8 9 10 11 12 13 14 15
000
FTUS41 KRNK 192320
TAFLWB
TAF
KLWB 192320Z 2000/2024 00000KT P6SM SKC
     FM201000 VRB03KT 1/4SM FG OVC001
     FM201400 29005KT P6SM SKC=

USA.gov is the U.S. government's official web portal to all federal, state and local government web resources and services.